Time;durP1;ratioP1;P1;durP2;ratioP2;P2;SDS_P1;SDS_P2;PMS_P1;PMS_P2;Temp;Humidity;BMP_temperature;BMP_pressure;BME280_temperature;BME280_humidity;BME280_pressure;Samples;Min_cycle;Max_cycle;Signal;HPM_P1;HPM_P2
2022/10/03 00:05:00;;;;;;;2.72;1.12;;;15.70;99.90;;;;;;1953372;72;22197;-91
2022/10/03 00:08:01;;;;;;;1.50;0.88;;;15.70;99.90;;;;;;1929054;73;21133;-90
2022/10/03 00:13:41;;;;;;;1.50;1.00;;;15.90;99.90;;;;;;1932387;72;28238;-89
2022/10/03 00:16:40;;;;;;;0.78;0.70;;;16.10;99.90;;;;;;1916934;75;21575;-90
2022/10/03 00:19:35;;;;;;;2.75;0.65;;;15.90;99.90;;;;;;1917376;75;21114;-90
2022/10/03 00:22:33;;;;;;;1.35;0.85;;;15.70;99.90;;;;;;1917093;75;21153;-90
2022/10/03 00:25:31;;;;;;;1.65;0.80;;;15.80;99.90;;;;;;1916981;75;21109;-90
2022/10/03 00:28:29;;;;;;;2.17;0.78;;;15.90;99.90;;;;;;1916525;73;21600;-90
2022/10/03 00:31:23;;;;;;;3.50;0.80;;;16.00;99.90;;;;;;1917004;75;21146;-89
2022/10/03 00:34:19;;;;;;;3.08;0.82;;;15.90;99.90;;;;;;1921279;73;21114;-90
2022/10/03 00:37:26;;;;;;;1.22;0.62;;;15.90;99.90;;;;;;1916824;75;21083;-89
2022/10/03 00:40:47;;;;;;;1.15;0.70;;;15.90;99.90;;;;;;1917311;75;21107;-90
2022/10/03 00:44:16;;;;;;;2.98;0.72;;;15.90;99.90;;;;;;1937969;73;21216;-91
2022/10/03 00:47:33;;;;;;;1.22;0.55;;;15.80;99.90;;;;;;1918718;73;21093;-90
2022/10/03 00:50:45;;;;;;;2.70;0.80;;;15.80;99.90;;;;;;1919691;73;21091;-90
2022/10/03 00:53:44;;;;;;;1.17;0.55;;;15.80;99.90;;;;;;1916670;75;21177;-90
2022/10/03 01:00:27;;;;;;;2.90;0.70;;;15.90;99.90;;;;;;1955973;72;20178;-90
2022/10/03 01:06:21;;;;;;;1.00;0.70;;;15.90;99.90;;;;;;1956254;70;22146;-90
2022/10/03 01:09:23;;;;;;;1.45;0.72;;;16.00;99.90;;;;;;1918931;72;21157;-90
2022/10/03 01:15:05;;;;;;;6.00;0.90;;;16.00;99.90;;;;;;1931855;72;22495;-91
2022/10/03 01:20:45;;;;;;;1.75;0.72;;;15.80;99.90;;;;;;1943204;72;23353;-90
2022/10/03 01:23:46;;;;;;;;;;;15.70;99.90;;;;;;1926013;74;21390;-90
2022/10/03 01:26:58;;;;;;;1.62;0.90;;;15.80;99.90;;;;;;1931665;74;20280;-89
2022/10/03 01:35:53;;;;;;;3.85;0.90;;;15.70;99.90;;;;;;1952384;72;22261;-89
2022/10/03 01:38:47;;;;;;;0.70;0.57;;;15.70;99.90;;;;;;1900692;74;21100;-89
2022/10/03 01:41:45;;;;;;;2.10;0.80;;;15.60;99.90;;;;;;1904090;75;21136;-90
2022/10/03 01:44:50;;;;;;;3.45;0.62;;;15.60;99.90;;;;;;1890944;75;21110;-89
2022/10/03 01:50:25;;;;;;;2.17;0.93;;;15.70;99.90;;;;;;1915989;72;22395;-90
2022/10/03 01:53:19;;;;;;;2.20;0.62;;;15.70;99.90;;;;;;1916940;75;21094;-89
2022/10/03 01:56:15;;;;;;;0.68;0.50;;;15.70;99.90;;;;;;1917007;73;21097;-89
2022/10/03 01:59:10;;;;;;;3.87;0.88;;;15.60;99.90;;;;;;1920030;73;21181;-90
2022/10/03 02:04:47;;;;;;;0.90;0.60;;;15.40;99.90;;;;;;1939028;72;22194;-89
2022/10/03 02:10:29;;;;;;;1.37;0.70;;;15.20;99.90;;;;;;1954743;72;22693;-90
2022/10/03 02:13:23;;;;;;;2.00;0.68;;;15.30;99.90;;;;;;1876951;75;21193;-89
2022/10/03 02:16:19;;;;;;;1.27;0.60;;;15.20;99.90;;;;;;1872544;75;21091;-89
2022/10/03 02:22:00;;;;;;;1.98;0.80;;;15.30;99.90;;;;;;1951047;72;22189;-88
2022/10/03 02:24:54;;;;;;;1.75;0.78;;;15.30;99.90;;;;;;1920013;73;21580;-90
2022/10/03 02:28:39;;;;;;;4.90;1.27;;;15.30;99.90;;;;;;1930561;73;21097;-90
2022/10/03 02:32:13;;;;;;;2.27;0.80;;;15.30;99.90;;;;;;1854079;77;21178;-91
2022/10/03 02:35:31;;;;;;;2.08;0.60;;;15.20;99.90;;;;;;1846940;75;21098;-90
2022/10/03 02:38:47;;;;;;;3.65;0.90;;;15.00;99.90;;;;;;1933629;73;21067;-90
2022/10/03 02:42:01;;;;;;;2.02;0.68;;;14.90;99.90;;;;;;1917149;75;21231;-90
2022/10/03 02:51:44;;;;;;;0.60;0.60;;;15.10;99.90;;;;;;1966191;72;22220;-90
2022/10/03 02:55:04;;;;;;;2.60;0.60;;;15.10;99.90;;;;;;1889199;73;21135;-90
2022/10/03 02:58:39;;;;;;;2.10;0.85;;;15.20;99.90;;;;;;1922740;72;21164;-91
2022/10/03 03:01:45;;;;;;;3.33;0.90;;;15.20;99.90;;;;;;1950065;73;21172;-90
2022/10/03 03:05:10;;;;;;;1.60;0.60;;;15.10;99.90;;;;;;1931751;73;21164;-90
2022/10/03 03:08:32;;;;;;;0.70;0.70;;;15.00;99.90;;;;;;1923977;73;21119;-90
2022/10/03 03:11:40;;;;;;;5.08;0.70;;;15.00;99.90;;;;;;1920523;73;21102;-91
2022/10/03 03:14:59;;;;;;;;;;;14.90;99.90;;;;;;1917369;73;21110;-90
2022/10/03 03:17:54;;;;;;;1.60;0.62;;;14.90;99.90;;;;;;1940893;73;20205;-90
2022/10/03 03:21:03;;;;;;;1.57;0.60;;;14.90;99.90;;;;;;1930533;73;21126;-91
2022/10/03 03:24:18;;;;;;;1.10;0.80;;;15.00;99.90;;;;;;1928922;73;21113;-90
2022/10/03 03:30:04;;;;;;;1.05;0.60;;;15.10;99.90;;;;;;1961637;72;22806;-90
2022/10/03 03:33:03;;;;;;;1.20;0.80;;;15.20;99.90;;;;;;1906600;74;21558;-89
2022/10/03 03:36:02;;;;;;;3.62;0.70;;;15.20;99.90;;;;;;1904540;74;21172;-89
2022/10/03 03:38:57;;;;;;;1.92;0.55;;;15.20;99.90;;;;;;1914980;74;21161;-90
2022/10/03 03:41:54;;;;;;;1.25;0.60;;;15.20;99.90;;;;;;1902739;74;21231;-90
2022/10/03 04:01:17;;;;;;;1.50;0.78;;;15.10;99.90;;;;;;1930084;72;22255;-90
2022/10/03 04:04:19;;;;;;;3.15;0.70;;;15.10;99.90;;;;;;1878361;75;21098;-89
2022/10/03 04:10:14;;;;;;;1.10;0.70;;;15.10;99.90;;;;;;1942641;72;22141;-90
2022/10/03 04:13:32;;;;;;;1.00;0.90;;;15.10;99.90;;;;;;1918063;73;21582;-89
2022/10/03 04:19:25;;;;;;;3.20;0.62;;;15.10;99.90;;;;;;1935245;72;22126;-90
2022/10/03 04:25:35;;;;;;;2.22;0.80;;;15.20;99.90;;;;;;1942651;72;22141;-89
2022/10/03 04:28:37;;;;;;;2.15;0.78;;;15.20;99.90;;;;;;1887358;75;21099;-91
2022/10/03 04:31:40;;;;;;;1.20;0.60;;;15.30;99.90;;;;;;1873234;75;21099;-91
2022/10/03 04:34:40;;;;;;;3.60;1.05;;;15.30;99.90;;;;;;1885600;75;21633;-90
2022/10/03 04:37:40;;;;;;;2.17;0.75;;;15.30;99.90;;;;;;1894087;75;21138;-89
2022/10/03 04:40:37;;;;;;;1.40;0.90;;;15.30;99.90;;;;;;1872150;75;21153;-89
2022/10/03 04:46:21;;;;;;;1.32;0.70;;;15.30;99.90;;;;;;1951270;72;22268;-90
2022/10/03 04:51:59;;;;;;;7.70;1.20;;;15.30;99.90;;;;;;1946551;72;22174;-89
2022/10/03 04:54:56;;;;;;;3.15;1.60;;;15.30;99.90;;;;;;1934630;73;21131;-90
2022/10/03 05:03:23;;;;;;;2.87;0.72;;;15.30;99.90;;;;;;1939448;72;22510;-89
2022/10/03 05:06:34;;;;;;;2.15;1.00;;;15.30;99.90;;;;;;1881415;75;21139;-91
2022/10/03 05:09:31;;;;;;;1.50;0.80;;;15.20;99.90;;;;;;1890512;75;21106;-90
2022/10/03 05:12:28;;;;;;;1.67;0.78;;;15.10;99.90;;;;;;1884737;75;21094;-91
2022/10/03 05:15:24;;;;;;;2.87;0.80;;;15.00;99.90;;;;;;1877968;75;21098;-89
2022/10/03 05:21:04;;;;;;;2.17;0.80;;;15.00;99.90;;;;;;1935004;72;22722;-89
2022/10/03 05:24:02;;;;;;;4.12;0.90;;;15.00;99.90;;;;;;1905627;75;21086;-89
2022/10/03 05:26:55;;;;;;;3.77;0.90;;;15.00;99.90;;;;;;1885250;75;21151;-91
2022/10/03 05:29:58;;;;;;;1.65;0.80;;;14.90;99.90;;;;;;1910867;75;21163;-89
2022/10/03 05:32:52;;;;;;;1.40;0.82;;;14.90;99.90;;;;;;1907579;75;21180;-91
2022/10/03 05:35:51;;;;;;;1.87;0.78;;;14.90;99.90;;;;;;1897351;75;21093;-91
2022/10/03 05:42:26;;;;;;;2.15;1.00;;;14.90;99.90;;;;;;1935045;72;22225;-91
2022/10/03 05:45:29;;;;;;;2.37;0.78;;;14.90;99.90;;;;;;1884105;75;21600;-90
2022/10/03 05:51:19;;;;;;;2.00;0.90;;;14.90;99.90;;;;;;1946106;72;22170;-92
2022/10/03 05:54:38;;;;;;;3.40;1.00;;;15.00;99.90;;;;;;1914035;73;21117;-90
2022/10/03 05:58:25;;;;;;;2.98;1.00;;;15.00;99.90;;;;;;1906038;75;21649;-92
2022/10/03 06:01:34;;;;;;;1.80;0.85;;;15.00;99.90;;;;;;1864371;74;21109;-91
2022/10/03 06:04:49;;;;;;;5.65;2.08;;;15.00;99.90;;;;;;1917471;75;21174;-91
2022/10/03 06:10:36;;;;;;;2.65;1.00;;;15.10;99.90;;;;;;1926380;72;27907;-90
2022/10/03 06:16:29;;;;;;;3.58;1.10;;;15.20;99.90;;;;;;1935846;72;22116;-92
2022/10/03 06:23:34;;;;;;;1.57;0.88;;;15.20;99.90;;;;;;1996413;71;22125;-90
2022/10/03 06:43:52;;;;;;;1.17;0.68;;;15.40;99.90;;;;;;1932507;72;22162;-90
2022/10/03 06:47:21;;;;;;;2.42;1.07;;;15.50;99.90;;;;;;1897384;75;21118;-91
2022/10/03 06:50:38;;;;;;;4.42;1.12;;;15.60;99.90;;;;;;1898825;75;21561;-92
2022/10/03 06:53:47;;;;;;;;;;;15.80;99.90;;;;;;1894742;75;21075;-91
2022/10/03 06:57:03;;;;;;;3.10;1.17;;;15.80;99.90;;;;;;1916417;75;20155;-90
2022/10/03 07:00:16;;;;;;;2.98;0.78;;;15.90;99.90;;;;;;1916603;75;21608;-90
2022/10/03 07:03:36;;;;;;;1.42;0.82;;;16.00;99.90;;;;;;1906830;75;21561;-91
2022/10/03 07:06:50;;;;;;;3.02;0.88;;;16.10;99.90;;;;;;1898933;75;21046;-90
2022/10/03 07:10:18;;;;;;;3.35;1.05;;;16.10;99.90;;;;;;1922380;73;21147;-91
2022/10/03 07:16:19;;;;;;;3.62;1.10;;;16.30;99.90;;;;;;1947664;72;22116;-90
2022/10/03 07:19:25;;;;;;;2.02;0.90;;;16.40;99.90;;;;;;1912911;73;21110;-90
2022/10/03 07:22:44;;;;;;;1.70;0.80;;;16.40;99.90;;;;;;1922907;74;21055;-90
2022/10/03 07:25:55;;;;;;;3.62;0.70;;;16.40;99.90;;;;;;1940260;73;21520;-90
2022/10/03 07:29:20;;;;;;;2.80;1.00;;;16.50;99.90;;;;;;1908358;74;21118;-90
2022/10/03 07:32:35;;;;;;;1.90;0.88;;;16.60;99.90;;;;;;1905254;74;21104;-90
2022/10/03 07:39:09;;;;;;;1.27;0.80;;;16.80;99.90;;;;;;1922366;73;21681;-91
2022/10/03 07:45:29;;;;;;;2.40;1.40;;;16.90;99.90;;;;;;1944038;72;22187;-90
2022/10/03 07:51:23;;;;;;;4.12;1.42;;;16.90;99.90;;;;;;1940452;72;27980;-90
2022/10/03 07:54:56;;;;;;;2.67;1.10;;;17.10;99.90;;;;;;1903192;75;21194;-91
2022/10/03 07:58:25;;;;;;;1.95;0.90;;;17.20;99.90;;;;;;1907295;74;21627;-90
2022/10/03 08:01:25;;;;;;;2.83;1.20;;;17.30;99.90;;;;;;1849626;74;21127;-90
2022/10/03 08:04:28;;;;;;;4.37;1.80;;;17.40;99.90;;;;;;1896238;75;21065;-86
2022/10/03 08:07:28;;;;;;;2.15;1.50;;;17.50;99.90;;;;;;1886772;75;21116;-87
2022/10/03 08:10:28;;;;;;;4.62;1.70;;;17.50;99.90;;;;;;1893176;75;21419;-76
2022/10/03 08:13:29;;;;;;;5.42;2.15;;;17.50;99.90;;;;;;1915015;74;21105;-76
2022/10/03 08:16:26;;;;;;;6.62;2.22;;;17.50;99.90;;;;;;1910711;74;21165;-76
2022/10/03 08:19:45;;;;;;;3.72;2.58;;;17.40;99.90;;;;;;1910467;75;21136;-76
2022/10/03 08:22:44;;;;;;;4.90;2.62;;;17.50;99.90;;;;;;1891724;74;21957;-77
2022/10/03 08:25:46;;;;;;;3.77;2.00;;;17.70;99.90;;;;;;1900635;74;21099;-76
2022/10/03 08:29:17;;;;;;;1.47;1.10;;;17.70;99.90;;;;;;1895465;75;21124;-77
2022/10/03 08:35:05;;;;;;;1.77;1.05;;;17.80;99.90;;;;;;1945132;72;22094;-76
2022/10/03 08:38:34;;;;;;;2.58;1.37;;;18.00;99.90;;;;;;1905444;73;21106;-77
2022/10/03 08:41:47;;;;;;;6.78;1.30;;;18.10;99.90;;;;;;1901613;73;21672;-76
2022/10/03 08:45:31;;;;;;;3.47;1.50;;;18.40;99.90;;;;;;1893371;75;21055;-76
2022/10/03 08:48:54;;;;;;;2.22;1.07;;;18.40;99.90;;;;;;1904686;75;21149;-77
2022/10/03 08:52:19;;;;;;;2.15;1.10;;;18.50;99.90;;;;;;1898353;75;21188;-76
2022/10/03 08:55:44;;;;;;;5.47;1.10;;;18.50;99.90;;;;;;1902496;75;21123;-77
2022/10/03 09:05:32;;;;;;;1.95;1.47;;;18.00;99.90;;;;;;1922582;72;28188;-76
2022/10/03 09:09:02;;;;;;;2.58;1.40;;;18.10;99.90;;;;;;1895059;75;21159;-76
2022/10/03 09:24:49;;;;;;;1.75;1.22;;;18.00;99.90;;;;;;1944376;72;22209;-77
2022/10/03 09:28:11;;;;;;;2.45;1.30;;;18.10;99.90;;;;;;1890379;75;21159;-76
2022/10/03 09:31:17;;;;;;;1.20;1.05;;;18.10;99.90;;;;;;1894693;75;21147;-76
2022/10/03 09:34:40;;;;;;;1.32;1.22;;;18.10;99.90;;;;;;1885915;75;21156;-76
2022/10/03 09:37:45;;;;;;;1.72;1.10;;;18.00;99.90;;;;;;1886068;75;21675;-76
2022/10/03 09:41:15;;;;;;;2.67;1.40;;;18.00;99.90;;;;;;1883125;75;21060;-76
2022/10/03 09:44:45;;;;;;;2.37;1.45;;;18.00;99.90;;;;;;1906520;75;21098;-76
2022/10/03 09:48:18;;;;;;;2.62;1.20;;;18.10;99.90;;;;;;1890717;73;21538;-76
2022/10/03 09:51:18;;;;;;;1.98;1.30;;;18.20;99.90;;;;;;1894152;75;21067;-77
2022/10/03 09:54:42;;;;;;;2.62;1.52;;;18.30;99.90;;;;;;1886309;75;21142;-77
2022/10/03 09:58:08;;;;;;;1.92;1.52;;;18.40;99.90;;;;;;1895812;75;21112;-76
2022/10/03 10:01:13;;;;;;;2.95;1.42;;;18.60;99.90;;;;;;1897863;75;21183;-76
2022/10/03 10:04:44;;;;;;;1.75;1.30;;;18.60;99.90;;;;;;1884236;75;21152;-76
2022/10/03 10:07:57;;;;;;;1.32;1.20;;;18.80;99.90;;;;;;1900509;75;21152;-76
2022/10/03 10:11:12;;;;;;;1.80;1.25;;;19.00;99.90;;;;;;1917396;75;21079;-76
2022/10/03 10:14:37;;;;;;;2.15;1.77;;;19.00;99.90;;;;;;1898943;75;21114;-76
2022/10/03 10:17:51;;;;;;;2.70;1.70;;;18.90;99.90;;;;;;1882868;73;21109;-76
2022/10/03 10:21:08;;;;;;;1.25;1.10;;;18.90;99.90;;;;;;1884993;75;21052;-76
2022/10/03 10:24:17;;;;;;;2.12;1.60;;;18.90;99.90;;;;;;1910629;74;21075;-76
2022/10/03 10:27:31;;;;;;;3.10;1.42;;;19.00;99.90;;;;;;1917457;74;21679;-76
2022/10/03 10:30:32;;;;;;;3.33;1.50;;;19.10;99.90;;;;;;1915887;74;21567;-77
2022/10/03 10:36:59;;;;;;;3.17;1.62;;;19.30;99.90;;;;;;1957844;72;22083;-76
2022/10/03 10:40:05;;;;;;;3.08;1.57;;;19.30;99.90;;;;;;1917430;75;21482;-77
2022/10/03 10:43:26;;;;;;;2.77;1.35;;;19.30;99.90;;;;;;1896802;75;21078;-76
2022/10/03 10:46:34;;;;;;;1.60;1.07;;;19.40;99.90;;;;;;1894914;75;21204;-76
2022/10/03 10:49:56;;;;;;;3.95;1.50;;;19.50;99.90;;;;;;1884430;76;21083;-76
2022/10/03 10:53:22;;;;;;;1.72;1.07;;;19.50;99.90;;;;;;1898434;75;21128;-76
2022/10/03 10:56:58;;;;;;;2.55;0.93;;;19.50;99.90;;;;;;1900868;75;21607;-76
2022/10/03 11:00:24;;;;;;;2.55;1.17;;;19.70;99.90;;;;;;1899680;75;21644;-77
2022/10/03 11:03:53;;;;;;;2.65;1.00;;;19.80;99.90;;;;;;1886671;75;21110;-76
2022/10/03 11:07:25;;;;;;;3.15;1.10;;;20.00;99.90;;;;;;1894599;75;21118;-77
2022/10/03 11:10:36;;;;;;;1.90;1.10;;;20.10;99.90;;;;;;1895089;75;21118;-76
2022/10/03 11:13:53;;;;;;;1.07;0.90;;;20.20;99.90;;;;;;1896402;75;21058;-76
2022/10/03 11:17:20;;;;;;;2.67;1.20;;;20.40;99.90;;;;;;1888958;75;21055;-76
2022/10/03 11:20:56;;;;;;;2.10;1.20;;;20.50;99.90;;;;;;1892335;75;21611;-76
2022/10/03 11:24:20;;;;;;;1.80;1.70;;;20.60;99.90;;;;;;1884677;76;21109;-76
2022/10/03 11:28:04;;;;;;;3.25;1.95;;;20.20;99.90;;;;;;1901613;75;21088;-76
2022/10/03 11:31:34;;;;;;;2.12;1.40;;;20.20;99.90;;;;;;1864433;76;21149;-76
2022/10/03 11:35:06;;;;;;;3.62;2.30;;;20.40;99.90;;;;;;1884274;76;21125;-76
2022/10/03 11:38:01;;;;;;;2.10;1.90;;;20.60;99.90;;;;;;1884484;76;21146;-76
2022/10/03 11:40:59;;;;;;;2.87;1.85;;;21.00;99.90;;;;;;1884088;76;21238;-76
2022/10/03 11:44:03;;;;;;;3.17;2.47;;;21.00;99.90;;;;;;1894830;75;21060;-78
2022/10/03 11:47:08;;;;;;;3.83;2.10;;;21.10;99.90;;;;;;1899763;73;21067;-76
2022/10/03 11:50:38;;;;;;;2.62;2.08;;;21.00;99.90;;;;;;1897720;75;21165;-76
2022/10/03 11:53:38;;;;;;;2.15;1.90;;;20.90;99.90;;;;;;1910517;75;21095;-76
2022/10/03 11:56:38;;;;;;;2.45;1.80;;;21.00;99.90;;;;;;1897219;75;21120;-76
2022/10/03 11:59:59;;;;;;;2.05;1.72;;;21.00;99.90;;;;;;1898221;75;21039;-76
2022/10/03 12:02:59;;;;;;;2.00;1.80;;;21.00;99.90;;;;;;1901585;73;21150;-76
2022/10/03 12:08:53;;;;;;;3.25;2.00;;;21.10;99.90;;;;;;1895857;73;21129;-76
2022/10/03 12:08:55;;;;;;;3.50;1.82;;;20.90;99.90;;;;;;1894979;75;21052;-76
2022/10/03 12:11:52;;;;;;;3.72;2.60;;;21.00;99.90;;;;;;1892300;75;21170;-76
2022/10/03 12:14:47;;;;;;;2.87;2.35;;;21.00;99.90;;;;;;1909631;75;21574;-76
2022/10/03 12:17:41;;;;;;;3.50;2.20;;;21.20;99.90;;;;;;1895782;75;21086;-76
2022/10/03 12:20:37;;;;;;;3.33;2.15;;;21.30;99.90;;;;;;1883999;75;21123;-77
2022/10/03 12:26:20;;;;;;;2.72;2.17;;;21.50;99.90;;;;;;1947060;72;22262;-76
2022/10/03 12:29:15;;;;;;;2.62;2.10;;;21.50;99.90;;;;;;1939000;73;21121;-76
2022/10/03 12:32:18;;;;;;;2.83;2.20;;;21.60;99.90;;;;;;1928281;73;21179;-75
2022/10/03 12:35:22;;;;;;;2.85;2.30;;;21.70;99.90;;;;;;1924432;73;21054;-76
2022/10/03 12:38:25;;;;;;;3.08;2.02;;;21.90;99.90;;;;;;1917328;75;21180;-75
2022/10/03 12:41:24;;;;;;;2.05;1.65;;;22.00;99.90;;;;;;1917441;75;21099;-76
2022/10/03 12:44:22;;;;;;;3.92;1.80;;;22.30;99.90;;;;;;1925515;73;21118;-75
2022/10/03 12:47:27;;;;;;;2.12;1.55;;;22.20;99.90;;;;;;1923890;73;21102;-77
2022/10/03 12:50:32;;;;;;;2.30;1.57;;;22.00;99.90;;;;;;1939957;73;21191;-76
2022/10/03 12:53:34;;;;;;;2.00;1.70;;;22.00;99.90;;;;;;1917333;73;21056;-76
2022/10/03 12:56:30;;;;;;;3.02;1.70;;;21.80;99.90;;;;;;1917376;75;21070;-76
2022/10/03 12:59:30;;;;;;;3.70;1.62;;;21.60;99.90;;;;;;1917233;75;21074;-76
2022/10/03 13:02:28;;;;;;;4.22;1.57;;;21.50;99.90;;;;;;1917402;73;21063;-76
2022/10/03 13:05:35;;;;;;;1.80;1.55;;;21.60;99.90;;;;;;1917426;75;21069;-76
2022/10/03 13:08:57;;;;;;;3.17;1.80;;;21.60;99.90;;;;;;1917457;75;21093;-76
2022/10/03 13:11:56;;;;;;;2.02;1.35;;;21.50;99.90;;;;;;1939882;73;21113;-76
2022/10/03 13:15:40;;;;;;;2.02;1.60;;;21.50;99.90;;;;;;1917276;75;21101;-76
2022/10/03 13:19:04;;;;;;;1.90;1.32;;;21.20;99.90;;;;;;1916458;73;21067;-76
2022/10/03 13:22:05;;;;;;;2.17;1.77;;;21.30;99.90;;;;;;1920467;73;21062;-76
2022/10/03 13:25:01;;;;;;;4.20;1.77;;;21.10;99.90;;;;;;1940386;73;21060;-76
2022/10/03 13:27:58;;;;;;;2.65;1.50;;;21.20;99.90;;;;;;1911962;74;21153;-75
2022/10/03 13:30:52;;;;;;;1.77;1.60;;;21.20;99.90;;;;;;1925282;74;21193;-76
2022/10/03 13:33:46;;;;;;;3.98;1.65;;;21.30;99.90;;;;;;1915032;74;21140;-77
2022/10/03 13:36:41;;;;;;;4.42;1.55;;;21.40;99.90;;;;;;1921462;74;21124;-77
2022/10/03 13:39:40;;;;;;;3.52;1.10;;;21.40;99.90;;;;;;1920203;74;21522;-77
2022/10/03 13:42:35;;;;;;;3.25;1.15;;;21.50;99.90;;;;;;1920798;74;21211;-76
2022/10/03 13:45:27;;;;;;;3.12;1.60;;;21.70;99.90;;;;;;1920298;74;21277;-76
2022/10/03 13:51:44;;;;;;;2.83;1.37;;;21.50;99.90;;;;;;1936892;73;21050;-75
2022/10/03 13:54:49;;;;;;;2.92;1.00;;;21.40;99.90;;;;;;1951622;73;21102;-76
2022/10/03 13:57:44;;;;;;;1.52;0.90;;;21.60;99.90;;;;;;1931152;73;21126;-76
2022/10/03 14:00:51;;;;;;;3.67;1.30;;;21.60;99.90;;;;;;1919211;73;21468;-76
2022/10/03 14:04:14;;;;;;;2.58;1.20;;;21.60;99.90;;;;;;1865260;75;21079;-76
2022/10/03 14:07:10;;;;;;;1.20;1.10;;;21.50;99.90;;;;;;1918202;74;21079;-77
2022/10/03 14:10:19;;;;;;;2.00;1.15;;;21.70;99.90;;;;;;1933682;74;21134;-77
2022/10/03 14:13:18;;;;;;;1.82;0.93;;;22.10;99.90;;;;;;1917636;74;21046;-76
2022/10/03 14:16:14;;;;;;;0.80;0.80;;;23.00;99.90;;;;;;1923668;74;21140;-76
2022/10/03 14:19:09;;;;;;;1.87;1.02;;;23.20;99.90;;;;;;1933242;73;21168;-76
2022/10/03 14:22:15;;;;;;;2.12;1.07;;;23.70;99.90;;;;;;1917773;73;21041;-76
2022/10/03 14:25:22;;;;;;;1.00;0.90;;;24.40;99.90;;;;;;1917190;73;21108;-76
2022/10/03 14:28:19;;;;;;;2.40;1.17;;;24.30;99.90;;;;;;1873089;76;21178;-76
2022/10/03 14:31:14;;;;;;;4.33;1.25;;;24.20;99.90;;;;;;1919333;74;21056;-76
2022/10/03 14:34:09;;;;;;;1.15;0.95;;;24.70;99.90;;;;;;1921232;74;21047;-76
2022/10/03 14:37:04;;;;;;;2.02;1.12;;;25.00;99.90;;;;;;1927651;74;21117;-76
2022/10/03 14:40:05;;;;;;;1.70;1.00;;;24.20;99.90;;;;;;1920586;74;21117;-76
2022/10/03 14:43:18;;;;;;;1.45;1.00;;;23.50;99.90;;;;;;1919781;74;21178;-76
2022/10/03 14:46:12;;;;;;;2.58;1.12;;;22.90;99.90;;;;;;1914342;74;21051;-75
2022/10/03 14:49:08;;;;;;;1.67;1.15;;;22.80;99.90;;;;;;1942447;74;21103;-75
2022/10/03 14:52:04;;;;;;;1.80;0.95;;;22.30;99.90;;;;;;1924629;74;21517;-76
2022/10/03 14:54:59;;;;;;;3.22;1.07;;;22.30;99.90;;;;;;1920550;74;21139;-76
2022/10/03 14:57:53;;;;;;;2.22;1.27;;;22.10;99.90;;;;;;1917157;74;21155;-76
2022/10/03 15:00:50;;;;;;;5.85;1.37;;;22.10;99.90;;;;;;1927862;73;21150;-76
2022/10/03 15:03:43;;;;;;;2.05;1.00;;;22.00;99.90;;;;;;1928162;73;21176;-76
2022/10/03 15:06:53;;;;;;;2.02;1.02;;;21.70;99.90;;;;;;1919924;74;21059;-76
2022/10/03 15:09:49;;;;;;;2.45;1.17;;;21.50;99.90;;;;;;1917202;74;21062;-76
2022/10/03 15:12:42;;;;;;;1.92;1.10;;;21.40;99.90;;;;;;1921527;74;21122;-76
2022/10/03 15:18:26;;;;;;;2.12;1.17;;;21.60;99.90;;;;;;1944179;72;22198;-76
2022/10/03 15:21:18;;;;;;;1.45;1.15;;;21.60;99.90;;;;;;1917325;75;21210;-77
2022/10/03 15:24:13;;;;;;;1.47;1.05;;;22.40;99.90;;;;;;1912327;73;21539;-77
2022/10/03 15:27:06;;;;;;;2.12;1.07;;;23.00;99.90;;;;;;1881689;76;21159;-77
2022/10/03 15:30:01;;;;;;;1.47;1.27;;;22.40;99.90;;;;;;1929102;74;21133;-76
2022/10/03 15:32:55;;;;;;;1.25;0.95;;;22.60;99.90;;;;;;1918910;73;21139;-76
2022/10/03 15:35:49;;;;;;;2.83;1.22;;;22.10;99.90;;;;;;1921837;73;21059;-79
2022/10/03 15:38:43;;;;;;;1.17;1.00;;;22.30;99.90;;;;;;1917344;75;21165;-76
2022/10/03 15:41:37;;;;;;;2.50;1.17;;;22.40;99.90;;;;;;1916966;75;21081;-76
2022/10/03 15:44:37;;;;;;;1.25;1.00;;;23.30;99.90;;;;;;1927698;73;21109;-76
2022/10/03 15:47:27;;;;;;;1.10;0.98;;;23.90;99.90;;;;;;1927529;73;21047;-76
2022/10/03 15:50:22;;;;;;;1.17;1.07;;;24.20;99.90;;;;;;1926172;73;21124;-76
2022/10/03 15:53:18;;;;;;;3.15;1.20;;;24.40;99.90;;;;;;1917279;75;21522;-76
2022/10/03 15:56:16;;;;;;;1.83;1.30;;;24.40;99.90;;;;;;1917726;75;21063;-76
2022/10/03 15:59:10;;;;;;;1.10;0.90;;;23.70;99.90;;;;;;1929216;73;21138;-77
2022/10/03 16:02:05;;;;;;;1.67;0.95;;;23.90;99.90;;;;;;1920485;73;21117;-76
2022/10/03 16:05:00;;;;;;;1.00;1.00;;;23.80;99.90;;;;;;1939491;73;21281;-76
2022/10/03 16:07:57;;;;;;;1.15;0.95;;;23.40;99.90;;;;;;1917367;75;22285;-76
2022/10/03 16:10:51;;;;;;;4.78;1.25;;;23.20;99.90;;;;;;1917349;75;21123;-76
2022/10/03 16:13:46;;;;;;;2.30;1.05;;;22.70;99.90;;;;;;1917336;75;21136;-77
2022/10/03 16:16:41;;;;;;;1.92;0.78;;;21.90;99.90;;;;;;1919029;73;21134;-77
2022/10/03 16:19:38;;;;;;;2.35;1.00;;;21.20;99.90;;;;;;1928510;73;21126;-76
2022/10/03 16:22:33;;;;;;;1.07;0.80;;;20.80;99.90;;;;;;1929942;73;21046;-75
2022/10/03 16:25:28;;;;;;;3.55;1.00;;;20.50;99.90;;;;;;1917348;75;21055;-75
2022/10/03 16:28:23;;;;;;;2.40;1.07;;;20.40;99.90;;;;;;1917965;75;21070;-77
2022/10/03 16:31:18;;;;;;;2.60;1.00;;;20.30;99.90;;;;;;1939881;73;21146;-76
2022/10/03 16:34:15;;;;;;;1.40;0.85;;;20.10;99.90;;;;;;1916732;75;21088;-76
2022/10/03 16:37:13;;;;;;;2.55;1.00;;;20.00;99.90;;;;;;1937612;73;21090;-76
2022/10/03 16:40:08;;;;;;;1.75;0.80;;;19.90;99.90;;;;;;1926972;74;21585;-76
2022/10/03 16:43:04;;;;;;;2.55;0.90;;;19.80;99.90;;;;;;1916518;75;21156;-77
2022/10/03 16:45:57;;;;;;;1.45;0.98;;;19.80;99.90;;;;;;1924790;73;22215;-77
2022/10/03 16:52:01;;;;;;;1.32;0.80;;;19.70;99.90;;;;;;1916507;75;21189;-76
2022/10/03 16:55:02;;;;;;;2.30;0.85;;;19.50;99.90;;;;;;1916527;75;21121;-76
2022/10/03 17:00:51;;;;;;;1.40;1.00;;;19.60;99.90;;;;;;1958189;72;22633;-75
2022/10/03 17:03:47;;;;;;;1.47;1.22;;;19.50;99.90;;;;;;1886620;75;21074;-77
2022/10/03 17:06:40;;;;;;;0.98;0.80;;;19.50;99.90;;;;;;1882019;75;21150;-76
2022/10/03 17:09:35;;;;;;;1.62;0.80;;;19.40;99.90;;;;;;1917380;75;21151;-76
2022/10/03 17:12:28;;;;;;;2.87;0.93;;;19.40;99.90;;;;;;1901406;75;21105;-76
2022/10/03 17:15:23;;;;;;;1.87;0.85;;;19.40;99.90;;;;;;1896898;75;21054;-76
2022/10/03 17:18:24;;;;;;;1.32;1.02;;;19.30;99.90;;;;;;1891139;73;21107;-76
2022/10/03 17:21:24;;;;;;;1.45;0.80;;;19.30;99.90;;;;;;1908044;75;21109;-77
2022/10/03 17:24:19;;;;;;;2.47;1.12;;;19.30;99.90;;;;;;1895475;75;21136;-77
2022/10/03 17:27:16;;;;;;;2.35;1.20;;;19.30;99.90;;;;;;1902064;75;21093;-76
2022/10/03 17:30:16;;;;;;;1.52;0.90;;;19.20;99.90;;;;;;1898421;75;22345;-76
2022/10/03 17:33:11;;;;;;;1.70;1.00;;;19.20;99.90;;;;;;1881233;75;21066;-76
2022/10/03 17:36:07;;;;;;;1.70;0.95;;;19.10;99.90;;;;;;1873960;76;21168;-76
2022/10/03 17:39:02;;;;;;;3.90;1.00;;;19.10;99.90;;;;;;1897785;75;21130;-76
2022/10/03 17:41:57;;;;;;;2.58;0.82;;;19.10;99.90;;;;;;1908491;75;21483;-76
2022/10/03 17:44:55;;;;;;;0.80;0.80;;;19.20;99.90;;;;;;1902583;75;21118;-76
2022/10/03 17:47:55;;;;;;;0.90;0.65;;;19.10;99.90;;;;;;1884560;75;21059;-76
2022/10/03 17:50:56;;;;;;;1.70;0.62;;;19.10;99.90;;;;;;1889561;75;21055;-76
2022/10/03 17:56:42;;;;;;;1.02;0.82;;;18.90;99.90;;;;;;1954030;72;22083;-76
2022/10/03 17:59:38;;;;;;;2.58;0.90;;;18.90;99.90;;;;;;1901588;75;21100;-78
2022/10/03 18:02:39;;;;;;;1.45;1.00;;;18.80;99.90;;;;;;1897649;73;21087;-76
2022/10/03 18:05:32;;;;;;;1.40;0.80;;;18.80;99.90;;;;;;1895565;75;21046;-76
2022/10/03 18:08:28;;;;;;;0.93;0.80;;;18.80;99.90;;;;;;1895192;75;21055;-78
2022/10/03 18:11:22;;;;;;;1.15;0.75;;;18.70;99.90;;;;;;1895632;75;21055;-78
2022/10/03 18:14:16;;;;;;;1.10;1.00;;;18.70;99.90;;;;;;1898662;75;21082;-78
2022/10/03 18:17:11;;;;;;;2.17;0.95;;;18.70;99.90;;;;;;1889554;75;21114;-78
2022/10/03 18:23:08;;;;;;;2.45;0.90;;;18.70;99.90;;;;;;1944630;72;22518;-76
2022/10/03 18:28:50;;;;;;;1.95;0.72;;;18.70;99.90;;;;;;1938623;72;22098;-77
2022/10/03 18:31:45;;;;;;;1.20;0.85;;;18.70;99.90;;;;;;1899804;75;21059;-78
2022/10/03 18:34:40;;;;;;;1.15;0.80;;;18.60;99.90;;;;;;1897729;75;21051;-76
2022/10/03 18:38:11;;;;;;;1.07;0.85;;;18.50;99.90;;;;;;1909596;75;21102;-76
2022/10/03 18:41:05;;;;;;;1.22;0.90;;;18.60;99.90;;;;;;1902207;75;21110;-77
2022/10/03 18:43:59;;;;;;;0.90;0.70;;;18.50;99.90;;;;;;1909191;75;21043;-76
2022/10/03 18:46:55;;;;;;;1.40;0.93;;;18.50;99.90;;;;;;1895776;75;21118;-77
2022/10/03 18:49:50;;;;;;;1.40;0.88;;;18.50;99.90;;;;;;1899204;75;21090;-77
2022/10/03 18:52:43;;;;;;;0.85;0.78;;;18.50;99.90;;;;;;1888942;75;21095;-76
2022/10/03 18:55:38;;;;;;;3.17;1.00;;;18.50;99.90;;;;;;1893461;75;21059;-76
2022/10/03 18:58:33;;;;;;;0.80;0.80;;;18.50;99.90;;;;;;1898660;75;21091;-77
2022/10/03 19:01:29;;;;;;;1.07;0.80;;;18.50;99.90;;;;;;1900687;75;21553;-76